sensor_id;sensor_type;location;lat;lon;timestamp;P1;durP1;ratioP1;P2;durP2;ratioP2
76591;SDS011;65481;47.600;19.682;2022-12-18T00:04:22;39.00;;;18.50;;
76591;SDS011;65481;47.600;19.682;2022-12-18T00:09:24;41.33;;;17.40;;
76591;SDS011;65481;47.600;19.682;2022-12-18T00:14:25;38.60;;;15.63;;
76591;SDS011;65481;47.600;19.682;2022-12-18T00:19:25;47.25;;;18.48;;
76591;SDS011;65481;47.600;19.682;2022-12-18T00:24:26;42.85;;;16.35;;
76591;SDS011;65481;47.600;19.682;2022-12-18T00:29:27;36.78;;;16.35;;
76591;SDS011;65481;47.600;19.682;2022-12-18T00:34:27;39.38;;;15.40;;
76591;SDS011;65481;47.600;19.682;2022-12-18T00:39:28;39.45;;;16.80;;
76591;SDS011;65481;47.600;19.682;2022-12-18T00:44:28;38.67;;;16.23;;
76591;SDS011;65481;47.600;19.682;2022-12-18T00:49:29;39.53;;;16.48;;
76591;SDS011;65481;47.600;19.682;2022-12-18T00:54:29;35.28;;;15.82;;
76591;SDS011;65481;47.600;19.682;2022-12-18T00:59:30;36.08;;;15.90;;
76591;SDS011;65481;47.600;19.682;2022-12-18T01:04:31;37.05;;;16.02;;
76591;SDS011;65481;47.600;19.682;2022-12-18T01:09:33;35.25;;;14.75;;
76591;SDS011;65481;47.600;19.682;2022-12-18T01:14:34;34.65;;;14.23;;
76591;SDS011;65481;47.600;19.682;2022-12-18T01:19:35;36.42;;;15.50;;
76591;SDS011;65481;47.600;19.682;2022-12-18T01:24:35;35.90;;;15.35;;
76591;SDS011;65481;47.600;19.682;2022-12-18T01:29:36;33.83;;;14.80;;
76591;SDS011;65481;47.600;19.682;2022-12-18T01:34:36;33.88;;;14.20;;
76591;SDS011;65481;47.600;19.682;2022-12-18T01:39:37;33.83;;;14.13;;
76591;SDS011;65481;47.600;19.682;2022-12-18T01:49:59;34.42;;;13.18;;
76591;SDS011;65481;47.600;19.682;2022-12-18T01:55:04;33.83;;;15.00;;
76591;SDS011;65481;47.600;19.682;2022-12-18T02:00:19;37.40;;;15.63;;
76591;SDS011;65481;47.600;19.682;2022-12-18T02:05:24;35.80;;;14.98;;
76591;SDS011;65481;47.600;19.682;2022-12-18T02:21:11;36.75;;;15.23;;
76591;SDS011;65481;47.600;19.682;2022-12-18T02:26:30;32.60;;;14.75;;
76591;SDS011;65481;47.600;19.682;2022-12-18T02:31:47;38.70;;;16.42;;
76591;SDS011;65481;47.600;19.682;2022-12-18T02:36:51;34.72;;;14.73;;
76591;SDS011;65481;47.600;19.682;2022-12-18T02:41:54;38.72;;;16.30;;
76591;SDS011;65481;47.600;19.682;2022-12-18T02:46:56;40.80;;;16.88;;
76591;SDS011;65481;47.600;19.682;2022-12-18T03:02:37;52.80;;;21.77;;
76591;SDS011;65481;47.600;19.682;2022-12-18T03:07:51;49.75;;;20.92;;
76591;SDS011;65481;47.600;19.682;2022-12-18T03:13:20;38.83;;;16.23;;
76591;SDS011;65481;47.600;19.682;2022-12-18T03:18:54;42.42;;;16.10;;
76591;SDS011;65481;47.600;19.682;2022-12-18T03:23:57;34.15;;;16.10;;
76591;SDS011;65481;47.600;19.682;2022-12-18T03:29:03;40.78;;;16.73;;
76591;SDS011;65481;47.600;19.682;2022-12-18T03:34:17;43.10;;;20.70;;
76591;SDS011;65481;47.600;19.682;2022-12-18T03:39:23;40.13;;;19.27;;
76591;SDS011;65481;47.600;19.682;2022-12-18T03:54:55;38.53;;;15.50;;
76591;SDS011;65481;47.600;19.682;2022-12-18T04:00:03;37.28;;;15.48;;
76591;SDS011;65481;47.600;19.682;2022-12-18T04:05:33;40.00;;;14.80;;
76591;SDS011;65481;47.600;19.682;2022-12-18T04:10:35;48.00;;;19.92;;
76591;SDS011;65481;47.600;19.682;2022-12-18T04:15:36;48.65;;;20.08;;
76591;SDS011;65481;47.600;19.682;2022-12-18T04:20:38;44.85;;;18.30;;
76591;SDS011;65481;47.600;19.682;2022-12-18T04:25:39;37.95;;;15.45;;
76591;SDS011;65481;47.600;19.682;2022-12-18T04:30:39;42.78;;;17.15;;
76591;SDS011;65481;47.600;19.682;2022-12-18T04:35:40;47.35;;;17.02;;
76591;SDS011;65481;47.600;19.682;2022-12-18T04:40:41;39.92;;;16.05;;
76591;SDS011;65481;47.600;19.682;2022-12-18T04:45:42;35.55;;;16.23;;
76591;SDS011;65481;47.600;19.682;2022-12-18T04:50:42;36.90;;;16.67;;
76591;SDS011;65481;47.600;19.682;2022-12-18T04:55:43;43.50;;;16.98;;
76591;SDS011;65481;47.600;19.682;2022-12-18T05:00:44;40.92;;;16.52;;
76591;SDS011;65481;47.600;19.682;2022-12-18T05:05:44;39.05;;;14.75;;
76591;SDS011;65481;47.600;19.682;2022-12-18T05:10:45;43.95;;;16.13;;
76591;SDS011;65481;47.600;19.682;2022-12-18T05:15:50;41.97;;;16.38;;
76591;SDS011;65481;47.600;19.682;2022-12-18T05:20:52;32.40;;;14.73;;
76591;SDS011;65481;47.600;19.682;2022-12-18T05:25:54;36.88;;;15.82;;
76591;SDS011;65481;47.600;19.682;2022-12-18T05:30:57;42.38;;;17.13;;
76591;SDS011;65481;47.600;19.682;2022-12-18T05:36:00;39.15;;;16.20;;
76591;SDS011;65481;47.600;19.682;2022-12-18T05:41:02;39.28;;;16.40;;
76591;SDS011;65481;47.600;19.682;2022-12-18T05:46:04;40.13;;;15.50;;
76591;SDS011;65481;47.600;19.682;2022-12-18T05:51:13;33.28;;;14.55;;
76591;SDS011;65481;47.600;19.682;2022-12-18T05:56:19;39.17;;;16.03;;
76591;SDS011;65481;47.600;19.682;2022-12-18T06:01:22;42.15;;;15.60;;
76591;SDS011;65481;47.600;19.682;2022-12-18T06:06:25;41.08;;;16.92;;
76591;SDS011;65481;47.600;19.682;2022-12-18T06:11:27;43.53;;;18.05;;
76591;SDS011;65481;47.600;19.682;2022-12-18T06:16:28;52.47;;;20.65;;
76591;SDS011;65481;47.600;19.682;2022-12-18T06:21:29;57.78;;;22.00;;
76591;SDS011;65481;47.600;19.682;2022-12-18T06:26:31;65.15;;;22.13;;
76591;SDS011;65481;47.600;19.682;2022-12-18T06:31:32;47.97;;;18.02;;
76591;SDS011;65481;47.600;19.682;2022-12-18T06:36:33;48.17;;;17.02;;
76591;SDS011;65481;47.600;19.682;2022-12-18T06:41:33;41.55;;;16.42;;
76591;SDS011;65481;47.600;19.682;2022-12-18T06:46:34;48.63;;;19.30;;
76591;SDS011;65481;47.600;19.682;2022-12-18T06:51:34;44.97;;;18.30;;
76591;SDS011;65481;47.600;19.682;2022-12-18T06:56:35;55.70;;;22.90;;
76591;SDS011;65481;47.600;19.682;2022-12-18T07:01:35;49.80;;;20.58;;
76591;SDS011;65481;47.600;19.682;2022-12-18T07:06:36;41.42;;;18.02;;
76591;SDS011;65481;47.600;19.682;2022-12-18T07:11:36;46.05;;;17.90;;
76591;SDS011;65481;47.600;19.682;2022-12-18T07:16:37;42.83;;;17.67;;
76591;SDS011;65481;47.600;19.682;2022-12-18T07:21:38;49.63;;;22.38;;
76591;SDS011;65481;47.600;19.682;2022-12-18T07:26:38;49.22;;;20.65;;
76591;SDS011;65481;47.600;19.682;2022-12-18T07:31:39;45.80;;;19.52;;
76591;SDS011;65481;47.600;19.682;2022-12-18T07:36:39;40.92;;;18.05;;
76591;SDS011;65481;47.600;19.682;2022-12-18T07:41:39;41.17;;;17.98;;
76591;SDS011;65481;47.600;19.682;2022-12-18T07:46:46;40.00;;;18.48;;
76591;SDS011;65481;47.600;19.682;2022-12-18T07:51:46;43.17;;;17.77;;
76591;SDS011;65481;47.600;19.682;2022-12-18T07:56:49;46.17;;;22.85;;
76591;SDS011;65481;47.600;19.682;2022-12-18T08:01:52;45.20;;;20.63;;
76591;SDS011;65481;47.600;19.682;2022-12-18T08:06:56;44.05;;;21.15;;
76591;SDS011;65481;47.600;19.682;2022-12-18T08:11:58;42.00;;;20.80;;
76591;SDS011;65481;47.600;19.682;2022-12-18T08:16:59;61.70;;;30.95;;
76591;SDS011;65481;47.600;19.682;2022-12-18T08:21:59;34.88;;;18.75;;
76591;SDS011;65481;47.600;19.682;2022-12-18T08:27:00;40.25;;;19.65;;
76591;SDS011;65481;47.600;19.682;2022-12-18T08:32:00;42.20;;;19.77;;
76591;SDS011;65481;47.600;19.682;2022-12-18T08:37:04;39.17;;;19.92;;
76591;SDS011;65481;47.600;19.682;2022-12-18T08:42:04;42.38;;;20.00;;
76591;SDS011;65481;47.600;19.682;2022-12-18T08:47:23;40.80;;;20.45;;
76591;SDS011;65481;47.600;19.682;2022-12-18T08:52:25;39.70;;;21.00;;
76591;SDS011;65481;47.600;19.682;2022-12-18T08:57:26;41.83;;;22.02;;
76591;SDS011;65481;47.600;19.682;2022-12-18T09:02:27;36.28;;;18.90;;
76591;SDS011;65481;47.600;19.682;2022-12-18T09:07:27;39.83;;;18.98;;
76591;SDS011;65481;47.600;19.682;2022-12-18T09:12:27;37.40;;;18.80;;
76591;SDS011;65481;47.600;19.682;2022-12-18T09:17:28;43.60;;;20.52;;
76591;SDS011;65481;47.600;19.682;2022-12-18T09:22:28;34.53;;;18.17;;
76591;SDS011;65481;47.600;19.682;2022-12-18T09:27:29;39.95;;;19.80;;
76591;SDS011;65481;47.600;19.682;2022-12-18T09:32:30;38.10;;;19.77;;
76591;SDS011;65481;47.600;19.682;2022-12-18T09:37:30;62.10;;;30.98;;
76591;SDS011;65481;47.600;19.682;2022-12-18T09:42:31;54.67;;;29.23;;
76591;SDS011;65481;47.600;19.682;2022-12-18T09:47:33;40.78;;;22.48;;
76591;SDS011;65481;47.600;19.682;2022-12-18T09:52:39;38.00;;;18.67;;
76591;SDS011;65481;47.600;19.682;2022-12-18T09:57:45;41.00;;;22.88;;
76591;SDS011;65481;47.600;19.682;2022-12-18T10:03:10;39.97;;;20.40;;
76591;SDS011;65481;47.600;19.682;2022-12-18T10:08:16;40.28;;;21.13;;
76591;SDS011;65481;47.600;19.682;2022-12-18T10:13:42;28.50;;;14.07;;
76591;SDS011;65481;47.600;19.682;2022-12-18T10:24:33;35.10;;;19.48;;
76591;SDS011;65481;47.600;19.682;2022-12-18T10:29:47;32.55;;;18.27;;
76591;SDS011;65481;47.600;19.682;2022-12-18T10:34:48;33.78;;;18.58;;
76591;SDS011;65481;47.600;19.682;2022-12-18T10:45:14;37.60;;;19.60;;
76591;SDS011;65481;47.600;19.682;2022-12-18T10:50:24;38.80;;;21.80;;
76591;SDS011;65481;47.600;19.682;2022-12-18T10:55:38;42.28;;;23.73;;
76591;SDS011;65481;47.600;19.682;2022-12-18T11:00:44;46.95;;;23.90;;
76591;SDS011;65481;47.600;19.682;2022-12-18T11:05:44;36.78;;;20.15;;
76591;SDS011;65481;47.600;19.682;2022-12-18T11:10:45;56.80;;;34.95;;
76591;SDS011;65481;47.600;19.682;2022-12-18T11:15:47;65.82;;;39.78;;
76591;SDS011;65481;47.600;19.682;2022-12-18T11:20:53;29.92;;;18.23;;
76591;SDS011;65481;47.600;19.682;2022-12-18T11:25:59;33.30;;;19.02;;
76591;SDS011;65481;47.600;19.682;2022-12-18T11:31:23;41.55;;;22.70;;
76591;SDS011;65481;47.600;19.682;2022-12-18T11:36:37;43.53;;;23.23;;
76591;SDS011;65481;47.600;19.682;2022-12-18T11:41:43;42.55;;;22.33;;
76591;SDS011;65481;47.600;19.682;2022-12-18T11:47:22;106.47;;;57.92;;
76591;SDS011;65481;47.600;19.682;2022-12-18T11:52:39;107.60;;;66.40;;
76591;SDS011;65481;47.600;19.682;2022-12-18T11:58:15;35.97;;;19.55;;
76591;SDS011;65481;47.600;19.682;2022-12-18T12:08:33;34.05;;;17.77;;
76591;SDS011;65481;47.600;19.682;2022-12-18T12:30:36;30.30;;;16.25;;
76591;SDS011;65481;47.600;19.682;2022-12-18T12:35:50;32.40;;;17.00;;
76591;SDS011;65481;47.600;19.682;2022-12-18T12:41:01;27.42;;;13.73;;
76591;SDS011;65481;47.600;19.682;2022-12-18T12:51:19;21.73;;;11.55;;
76591;SDS011;65481;47.600;19.682;2022-12-18T12:56:20;22.60;;;11.68;;
76591;SDS011;65481;47.600;19.682;2022-12-18T13:01:32;20.25;;;10.95;;
76591;SDS011;65481;47.600;19.682;2022-12-18T13:06:46;21.13;;;10.73;;
76591;SDS011;65481;47.600;19.682;2022-12-18T13:11:52;19.33;;;10.55;;
76591;SDS011;65481;47.600;19.682;2022-12-18T13:22:28;16.80;;;9.52;;
76591;SDS011;65481;47.600;19.682;2022-12-18T13:32:44;19.75;;;9.65;;
76591;SDS011;65481;47.600;19.682;2022-12-18T13:37:51;18.38;;;9.13;;
76591;SDS011;65481;47.600;19.682;2022-12-18T13:42:53;17.17;;;8.52;;
76591;SDS011;65481;47.600;19.682;2022-12-18T13:48:16;16.33;;;8.35;;
76591;SDS011;65481;47.600;19.682;2022-12-18T13:53:26;17.65;;;9.32;;
76591;SDS011;65481;47.600;19.682;2022-12-18T13:58:29;18.45;;;8.48;;
76591;SDS011;65481;47.600;19.682;2022-12-18T14:03:30;18.25;;;10.13;;
76591;SDS011;65481;47.600;19.682;2022-12-18T14:08:38;16.83;;;9.32;;
76591;SDS011;65481;47.600;19.682;2022-12-18T14:13:41;21.85;;;10.90;;
76591;SDS011;65481;47.600;19.682;2022-12-18T14:18:45;22.35;;;10.85;;
76591;SDS011;65481;47.600;19.682;2022-12-18T14:23:46;24.75;;;10.40;;
76591;SDS011;65481;47.600;19.682;2022-12-18T14:28:47;21.52;;;10.32;;
76591;SDS011;65481;47.600;19.682;2022-12-18T14:33:47;18.50;;;8.50;;
76591;SDS011;65481;47.600;19.682;2022-12-18T14:38:53;21.08;;;10.27;;
76591;SDS011;65481;47.600;19.682;2022-12-18T14:43:56;21.48;;;10.00;;
76591;SDS011;65481;47.600;19.682;2022-12-18T14:54:20;20.80;;;10.38;;
76591;SDS011;65481;47.600;19.682;2022-12-18T14:59:22;22.73;;;11.70;;
76591;SDS011;65481;47.600;19.682;2022-12-18T15:04:34;27.52;;;14.40;;
76591;SDS011;65481;47.600;19.682;2022-12-18T15:09:40;42.88;;;19.50;;
76591;SDS011;65481;47.600;19.682;2022-12-18T15:14:46;39.10;;;19.05;;
76591;SDS011;65481;47.600;19.682;2022-12-18T15:19:48;36.88;;;18.67;;
76591;SDS011;65481;47.600;19.682;2022-12-18T15:24:52;37.67;;;19.02;;
76591;SDS011;65481;47.600;19.682;2022-12-18T15:30:11;32.10;;;16.02;;
76591;SDS011;65481;47.600;19.682;2022-12-18T15:35:21;40.00;;;17.95;;
76591;SDS011;65481;47.600;19.682;2022-12-18T15:40:23;36.20;;;17.05;;
76591;SDS011;65481;47.600;19.682;2022-12-18T15:45:24;35.55;;;17.98;;
76591;SDS011;65481;47.600;19.682;2022-12-18T15:50:25;37.08;;;16.80;;
76591;SDS011;65481;47.600;19.682;2022-12-18T15:55:26;41.28;;;19.25;;
76591;SDS011;65481;47.600;19.682;2022-12-18T16:00:46;39.53;;;21.13;;
76591;SDS011;65481;47.600;19.682;2022-12-18T16:05:47;41.47;;;21.75;;
76591;SDS011;65481;47.600;19.682;2022-12-18T16:10:47;88.60;;;40.53;;
76591;SDS011;65481;47.600;19.682;2022-12-18T16:15:48;308.95;;;129.63;;
76591;SDS011;65481;47.600;19.682;2022-12-18T16:20:49;225.57;;;103.32;;
76591;SDS011;65481;47.600;19.682;2022-12-18T16:25:50;79.22;;;35.10;;
76591;SDS011;65481;47.600;19.682;2022-12-18T16:30:51;49.83;;;23.05;;
76591;SDS011;65481;47.600;19.682;2022-12-18T16:35:52;33.08;;;15.73;;
76591;SDS011;65481;47.600;19.682;2022-12-18T16:40:53;31.05;;;14.18;;
76591;SDS011;65481;47.600;19.682;2022-12-18T16:46:32;28.17;;;12.93;;
76591;SDS011;65481;47.600;19.682;2022-12-18T16:51:34;31.08;;;13.70;;
76591;SDS011;65481;47.600;19.682;2022-12-18T16:56:35;39.75;;;17.10;;
76591;SDS011;65481;47.600;19.682;2022-12-18T17:01:36;54.03;;;22.27;;
76591;SDS011;65481;47.600;19.682;2022-12-18T17:06:39;57.45;;;25.55;;
76591;SDS011;65481;47.600;19.682;2022-12-18T17:11:44;76.90;;;32.33;;
76591;SDS011;65481;47.600;19.682;2022-12-18T17:16:45;81.22;;;38.47;;
76591;SDS011;65481;47.600;19.682;2022-12-18T17:21:47;123.18;;;52.05;;
76591;SDS011;65481;47.600;19.682;2022-12-18T17:26:50;140.98;;;55.42;;
76591;SDS011;65481;47.600;19.682;2022-12-18T17:31:51;120.80;;;58.33;;
76591;SDS011;65481;47.600;19.682;2022-12-18T17:36:51;138.88;;;71.10;;
76591;SDS011;65481;47.600;19.682;2022-12-18T17:41:52;161.27;;;79.22;;
76591;SDS011;65481;47.600;19.682;2022-12-18T17:46:55;122.93;;;62.42;;
76591;SDS011;65481;47.600;19.682;2022-12-18T17:51:57;233.65;;;119.40;;
76591;SDS011;65481;47.600;19.682;2022-12-18T17:56:57;113.28;;;61.33;;
76591;SDS011;65481;47.600;19.682;2022-12-18T18:01:58;89.22;;;43.47;;
76591;SDS011;65481;47.600;19.682;2022-12-18T18:06:59;91.70;;;41.13;;
76591;SDS011;65481;47.600;19.682;2022-12-18T18:12:00;91.65;;;41.45;;
76591;SDS011;65481;47.600;19.682;2022-12-18T18:17:20;91.55;;;40.70;;
76591;SDS011;65481;47.600;19.682;2022-12-18T18:22:21;89.55;;;39.03;;
76591;SDS011;65481;47.600;19.682;2022-12-18T18:27:24;97.20;;;41.65;;
76591;SDS011;65481;47.600;19.682;2022-12-18T18:32:26;100.82;;;42.20;;
76591;SDS011;65481;47.600;19.682;2022-12-18T18:37:26;100.10;;;39.03;;
76591;SDS011;65481;47.600;19.682;2022-12-18T18:42:27;103.07;;;40.47;;
76591;SDS011;65481;47.600;19.682;2022-12-18T18:47:29;103.45;;;41.35;;
76591;SDS011;65481;47.600;19.682;2022-12-18T18:52:30;221.98;;;94.35;;
76591;SDS011;65481;47.600;19.682;2022-12-18T18:57:32;463.65;;;253.82;;
76591;SDS011;65481;47.600;19.682;2022-12-18T19:02:33;220.60;;;127.90;;
76591;SDS011;65481;47.600;19.682;2022-12-18T19:07:34;203.40;;;109.63;;
76591;SDS011;65481;47.600;19.682;2022-12-18T19:12:34;148.40;;;72.88;;
76591;SDS011;65481;47.600;19.682;2022-12-18T19:17:53;128.98;;;53.42;;
76591;SDS011;65481;47.600;19.682;2022-12-18T19:22:54;133.48;;;56.67;;
76591;SDS011;65481;47.600;19.682;2022-12-18T19:27:58;137.38;;;56.05;;
76591;SDS011;65481;47.600;19.682;2022-12-18T19:32:59;121.82;;;45.05;;
76591;SDS011;65481;47.600;19.682;2022-12-18T19:38:00;109.20;;;38.92;;
76591;SDS011;65481;47.600;19.682;2022-12-18T19:43:01;105.47;;;38.42;;
76591;SDS011;65481;47.600;19.682;2022-12-18T19:48:04;114.60;;;45.05;;
76591;SDS011;65481;47.600;19.682;2022-12-18T19:53:06;113.60;;;41.50;;
76591;SDS011;65481;47.600;19.682;2022-12-18T19:58:07;103.65;;;38.53;;
76591;SDS011;65481;47.600;19.682;2022-12-18T20:03:09;105.43;;;38.53;;
76591;SDS011;65481;47.600;19.682;2022-12-18T20:08:09;108.13;;;38.60;;
76591;SDS011;65481;47.600;19.682;2022-12-18T20:13:10;97.15;;;36.92;;
76591;SDS011;65481;47.600;19.682;2022-12-18T20:18:11;103.55;;;36.67;;
76591;SDS011;65481;47.600;19.682;2022-12-18T20:23:18;105.90;;;39.55;;
76591;SDS011;65481;47.600;19.682;2022-12-18T20:28:22;104.25;;;38.30;;
76591;SDS011;65481;47.600;19.682;2022-12-18T20:33:23;82.90;;;33.42;;
76591;SDS011;65481;47.600;19.682;2022-12-18T20:38:24;93.72;;;34.55;;
76591;SDS011;65481;47.600;19.682;2022-12-18T20:43:25;94.22;;;35.33;;
76591;SDS011;65481;47.600;19.682;2022-12-18T20:48:27;87.78;;;32.35;;
76591;SDS011;65481;47.600;19.682;2022-12-18T20:53:28;90.78;;;32.30;;
76591;SDS011;65481;47.600;19.682;2022-12-18T20:58:30;93.95;;;31.83;;
76591;SDS011;65481;47.600;19.682;2022-12-18T21:03:30;83.65;;;31.65;;
76591;SDS011;65481;47.600;19.682;2022-12-18T21:08:31;93.68;;;32.33;;
76591;SDS011;65481;47.600;19.682;2022-12-18T21:13:32;100.88;;;36.08;;
76591;SDS011;65481;47.600;19.682;2022-12-18T21:18:32;94.45;;;33.17;;
76591;SDS011;65481;47.600;19.682;2022-12-18T21:23:32;78.50;;;29.73;;
76591;SDS011;65481;47.600;19.682;2022-12-18T21:28:34;85.30;;;30.02;;
76591;SDS011;65481;47.600;19.682;2022-12-18T21:33:35;74.53;;;30.60;;
76591;SDS011;65481;47.600;19.682;2022-12-18T21:38:35;87.35;;;32.70;;
76591;SDS011;65481;47.600;19.682;2022-12-18T21:43:36;71.85;;;28.02;;
76591;SDS011;65481;47.600;19.682;2022-12-18T21:48:55;85.70;;;32.08;;
76591;SDS011;65481;47.600;19.682;2022-12-18T21:53:55;86.50;;;31.60;;
76591;SDS011;65481;47.600;19.682;2022-12-18T21:58:56;84.60;;;30.00;;
76591;SDS011;65481;47.600;19.682;2022-12-18T22:03:57;89.38;;;29.90;;
76591;SDS011;65481;47.600;19.682;2022-12-18T22:08:57;84.75;;;32.85;;
76591;SDS011;65481;47.600;19.682;2022-12-18T22:13:57;77.82;;;31.02;;
76591;SDS011;65481;47.600;19.682;2022-12-18T22:18:58;84.88;;;30.80;;
76591;SDS011;65481;47.600;19.682;2022-12-18T22:29:00;79.70;;;29.92;;
76591;SDS011;65481;47.600;19.682;2022-12-18T22:34:20;85.32;;;29.67;;
76591;SDS011;65481;47.600;19.682;2022-12-18T22:39:25;77.85;;;29.88;;
76591;SDS011;65481;47.600;19.682;2022-12-18T22:44:26;77.85;;;30.40;;
76591;SDS011;65481;47.600;19.682;2022-12-18T22:49:27;82.80;;;27.85;;
76591;SDS011;65481;47.600;19.682;2022-12-18T22:54:27;92.68;;;32.45;;
76591;SDS011;65481;47.600;19.682;2022-12-18T22:59:28;86.22;;;30.92;;
76591;SDS011;65481;47.600;19.682;2022-12-18T23:04:28;80.82;;;27.92;;
76591;SDS011;65481;47.600;19.682;2022-12-18T23:09:29;73.45;;;29.90;;
76591;SDS011;65481;47.600;19.682;2022-12-18T23:14:29;81.05;;;27.77;;
76591;SDS011;65481;47.600;19.682;2022-12-18T23:19:30;81.80;;;29.45;;
76591;SDS011;65481;47.600;19.682;2022-12-18T23:24:30;84.10;;;29.02;;
76591;SDS011;65481;47.600;19.682;2022-12-18T23:29:31;69.97;;;28.98;;
76591;SDS011;65481;47.600;19.682;2022-12-18T23:34:31;74.00;;;28.50;;
76591;SDS011;65481;47.600;19.682;2022-12-18T23:39:32;76.93;;;27.88;;
76591;SDS011;65481;47.600;19.682;2022-12-18T23:44:32;72.25;;;27.42;;
76591;SDS011;65481;47.600;19.682;2022-12-18T23:49:33;68.28;;;27.40;;
76591;SDS011;65481;47.600;19.682;2022-12-18T23:54:33;72.88;;;25.60;;
76591;SDS011;65481;47.600;19.682;2022-12-18T23:59:34;76.85;;;26.90;;
